Kezdőlap
METAR-TAF:

METAR-TAF

Repülőterek :

Roland Garros repülőtér

Saint-Denis, Réunion

földrajzi szélesség: 20-53S, földrajzi hosszúság: 055-31E, magasság: 21 m

Jelenlegi meteorológiai megfigyelések

A jelentés 18 perccel ezelõtt készült, 14:00 UTC
Kelet-délkeleti szél 12 kt
Hőmérséklet 24°C
Páratartalom 65%
Légköri nyomás 1020 hPa
Látótávolság 10 km, vagy több

METAR: FMEE 231400Z AUTO 11012KT 9999 FEW043/// 24/17 Q1020 NOSIG

Idő: 18:18 (14:18 UTC)

Előrejelzés

A jelentés 3 órával és 18 perccel ezelõtt készült, 11:00 UTC
Az előrejelzés 23-én 12 óra UTC és 24-én 18 óra UTC között érvényes
Kelet-délkeleti szél 14 kt
Látótávolság 10 km, vagy több
Kevés felhő 2300 lábon
Szórványos felhőzet 4500 lábon
Valószínűség 30% :
23-én 12 óra UTC és 23-én 14 óra UTC között ideiglenes
Keleti szél 15 kt széllökések: 25 kt

TAF: FMEE 231100Z 2312/2418 12014KT 9999 FEW023 SCT045 PROB30 TEMPO 2312/2314 09015G25KT

Meteorológiai megfigyelések és előrejelzések több, mint 4000 repülőtéren (METAR és TAF jelentéseket).

A térképen piros és sárga pontok jelzik az elérhető meteorológiai állomásokat.

Mozgassa az egeret a pont fölött, hogy megjelenjen az állomás neve.

Azután kattintson az időjárási megfigyelések és előrejelzések megtekintéséhez.

A térkép megváltoztatása: kattintson a fekete keresztel jelölt zöld gombra ráközelítéshez, a vonallal jelölt zöld gombra távolításhoz, vagy a zöld nyilakra a szomszédos térképek eléréséhez.


METAR-TAF: